sensor_id;sensor_type;location;lat;lon;timestamp;pressure;altitude;pressure_sealevel;temperature;humidity
44131;BME280;29792;48.726;9.248;2023-02-11T00:01:25;98869.50;;;-0.31;80.35
44131;BME280;29792;48.726;9.248;2023-02-11T00:03:52;98871.22;;;-0.33;80.49
44131;BME280;29792;48.726;9.248;2023-02-11T00:06:17;98861.16;;;-0.36;80.59
44131;BME280;29792;48.726;9.248;2023-02-11T00:08:42;98866.19;;;-0.39;81.01
44131;BME280;29792;48.726;9.248;2023-02-11T00:11:12;98872.13;;;-0.42;81.59
44131;BME280;29792;48.726;9.248;2023-02-11T00:13:37;98869.59;;;-0.43;81.02
44131;BME280;29792;48.726;9.248;2023-02-11T00:16:11;98867.09;;;-0.48;81.31
44131;BME280;29792;48.726;9.248;2023-02-11T00:18:36;98868.81;;;-0.51;81.39
44131;BME280;29792;48.726;9.248;2023-02-11T00:21:22;98866.34;;;-0.57;82.33
44131;BME280;29792;48.726;9.248;2023-02-11T00:23:47;98872.22;;;-0.57;81.70
44131;BME280;29792;48.726;9.248;2023-02-11T00:26:14;98865.50;;;-0.61;82.40
44131;BME280;29792;48.726;9.248;2023-02-11T00:28:41;98874.75;;;-0.64;82.31
44131;BME280;29792;48.726;9.248;2023-02-11T00:31:06;98866.38;;;-0.66;81.75
44131;BME280;29792;48.726;9.248;2023-02-11T00:33:32;98864.72;;;-0.67;82.47
44131;BME280;29792;48.726;9.248;2023-02-11T00:35:57;98863.88;;;-0.69;82.85
44131;BME280;29792;48.726;9.248;2023-02-11T00:38:22;98866.41;;;-0.71;83.07
44131;BME280;29792;48.726;9.248;2023-02-11T00:40:47;98862.22;;;-0.72;83.13
44131;BME280;29792;48.726;9.248;2023-02-11T00:43:13;98858.88;;;-0.77;83.30
44131;BME280;29792;48.726;9.248;2023-02-11T00:45:38;98853.03;;;-0.81;83.63
44131;BME280;29792;48.726;9.248;2023-02-11T00:48:03;98846.34;;;-0.88;84.18
44131;BME280;29792;48.726;9.248;2023-02-11T00:50:28;98848.91;;;-0.91;84.84
44131;BME280;29792;48.726;9.248;2023-02-11T00:52:54;98842.19;;;-0.96;84.84
44131;BME280;29792;48.726;9.248;2023-02-11T00:55:19;98843.06;;;-0.99;85.18
44131;BME280;29792;48.726;9.248;2023-02-11T00:57:44;98848.94;;;-1.01;85.59
44131;BME280;29792;48.726;9.248;2023-02-11T01:00:11;98847.28;;;-1.04;86.15
44131;BME280;29792;48.726;9.248;2023-02-11T01:02:37;98854.84;;;-1.07;86.50
44131;BME280;29792;48.726;9.248;2023-02-11T01:05:02;98848.97;;;-1.10;86.49
44131;BME280;29792;48.726;9.248;2023-02-11T01:07:28;98856.53;;;-1.12;86.56
44131;BME280;29792;48.726;9.248;2023-02-11T01:09:53;98849.81;;;-1.13;87.53
44131;BME280;29792;48.726;9.248;2023-02-11T01:12:18;98842.28;;;-1.13;87.20
44131;BME280;29792;48.726;9.248;2023-02-11T01:14:44;98843.97;;;-1.15;86.82
44131;BME280;29792;48.726;9.248;2023-02-11T01:17:09;98842.31;;;-1.16;87.42
44131;BME280;29792;48.726;9.248;2023-02-11T01:19:36;98837.28;;;-1.16;87.27
44131;BME280;29792;48.726;9.248;2023-02-11T01:22:01;98829.75;;;-1.19;87.33
44131;BME280;29792;48.726;9.248;2023-02-11T01:24:27;98821.38;;;-1.21;87.42
44131;BME280;29792;48.726;9.248;2023-02-11T01:26:52;98810.50;;;-1.23;87.51
44131;BME280;29792;48.726;9.248;2023-02-11T01:29:18;98807.16;;;-1.27;88.22
44131;BME280;29792;48.726;9.248;2023-02-11T01:31:43;98806.34;;;-1.32;88.77
44131;BME280;29792;48.726;9.248;2023-02-11T01:34:08;98821.44;;;-1.32;89.02
44131;BME280;29792;48.726;9.248;2023-02-11T01:36:34;98815.56;;;-1.34;88.16
44131;BME280;29792;48.726;9.248;2023-02-11T01:38:59;98813.88;;;-1.33;89.04
44131;BME280;29792;48.726;9.248;2023-02-11T01:41:24;98808.03;;;-1.34;89.39
44131;BME280;29792;48.726;9.248;2023-02-11T01:43:49;98807.19;;;-1.36;89.03
44131;BME280;29792;48.726;9.248;2023-02-11T01:46:28;98809.69;;;-1.37;89.26
44131;BME280;29792;48.726;9.248;2023-02-11T01:49:05;98807.22;;;-1.39;89.56
44131;BME280;29792;48.726;9.248;2023-02-11T01:51:41;98806.38;;;-1.39;88.95
44131;BME280;29792;48.726;9.248;2023-02-11T01:54:09;98799.69;;;-1.42;89.89
44131;BME280;29792;48.726;9.248;2023-02-11T01:56:57;98804.69;;;-1.42;90.25
44131;BME280;29792;48.726;9.248;2023-02-11T02:02:22;98800.50;;;-1.41;89.82
44131;BME280;29792;48.726;9.248;2023-02-11T02:04:52;98798.00;;;-1.44;90.04
44131;BME280;29792;48.726;9.248;2023-02-11T02:07:34;98795.50;;;-1.47;90.04
44131;BME280;29792;48.726;9.248;2023-02-11T02:10:07;98789.66;;;-1.49;90.74
44131;BME280;29792;48.726;9.248;2023-02-11T02:12:33;98780.44;;;-1.50;90.25
44131;BME280;29792;48.726;9.248;2023-02-11T02:15:18;98793.00;;;-1.54;90.24
44131;BME280;29792;48.726;9.248;2023-02-11T02:17:53;98783.78;;;-1.51;90.64
44131;BME280;29792;48.726;9.248;2023-02-11T02:31:56;98777.03;;;-1.37;90.75
44131;BME280;29792;48.726;9.248;2023-02-11T02:34:45;98782.06;;;-1.34;91.33
44131;BME280;29792;48.726;9.248;2023-02-11T02:37:20;98766.97;;;-1.31;91.47
44131;BME280;29792;48.726;9.248;2023-02-11T02:39:49;98760.22;;;-1.26;91.68
44131;BME280;29792;48.726;9.248;2023-02-11T02:42:15;98767.78;;;-1.23;91.40
44131;BME280;29792;48.726;9.248;2023-02-11T02:44:48;98766.06;;;-1.20;91.77
44131;BME280;29792;48.726;9.248;2023-02-11T02:47:13;98766.88;;;-1.14;90.86
44131;BME280;29792;48.726;9.248;2023-02-11T02:49:39;98753.47;;;-1.13;91.02
44131;BME280;29792;48.726;9.248;2023-02-11T02:52:23;98770.22;;;-1.11;91.75
44131;BME280;29792;48.726;9.248;2023-02-11T02:55:23;98760.16;;;-1.11;90.61
44131;BME280;29792;48.726;9.248;2023-02-11T02:58:28;98759.31;;;-1.11;91.21
44131;BME280;29792;48.726;9.248;2023-02-11T03:01:22;98742.56;;;-1.12;90.61
44131;BME280;29792;48.726;9.248;2023-02-11T03:06:41;98733.41;;;-1.24;91.80
44131;BME280;29792;48.726;9.248;2023-02-11T03:09:25;98746.03;;;-1.33;91.51
44131;BME280;29792;48.726;9.248;2023-02-11T03:11:52;98751.06;;;-1.36;92.00
44131;BME280;29792;48.726;9.248;2023-02-11T03:14:18;98742.69;;;-1.37;92.00
44131;BME280;29792;48.726;9.248;2023-02-11T03:16:45;98739.34;;;-1.36;92.62
44131;BME280;29792;48.726;9.248;2023-02-11T03:19:45;98732.63;;;-1.35;93.45
44131;BME280;29792;48.726;9.248;2023-02-11T03:22:26;98731.78;;;-1.37;93.17
44131;BME280;29792;48.726;9.248;2023-02-11T03:24:52;98742.72;;;-1.38;93.77
44131;BME280;29792;48.726;9.248;2023-02-11T03:30:21;98741.09;;;-1.50;94.00
44131;BME280;29792;48.726;9.248;2023-02-11T03:32:51;98741.09;;;-1.51;93.69
44131;BME280;29792;48.726;9.248;2023-02-11T03:35:27;98736.06;;;-1.53;93.98
44131;BME280;29792;48.726;9.248;2023-02-11T03:37:59;98734.38;;;-1.51;94.04
44131;BME280;29792;48.726;9.248;2023-02-11T03:40:29;98735.22;;;-1.49;94.01
44131;BME280;29792;48.726;9.248;2023-02-11T03:42:58;98732.72;;;-1.49;93.72
44131;BME280;29792;48.726;9.248;2023-02-11T03:45:26;98736.88;;;-1.48;94.41
44131;BME280;29792;48.726;9.248;2023-02-11T03:47:58;98746.09;;;-1.48;94.15
44131;BME280;29792;48.726;9.248;2023-02-11T03:50:25;98736.88;;;-1.46;94.56
44131;BME280;29792;48.726;9.248;2023-02-11T03:52:54;98740.22;;;-1.44;94.13
44131;BME280;29792;48.726;9.248;2023-02-11T03:55:22;98744.41;;;-1.40;94.73
44131;BME280;29792;48.726;9.248;2023-02-11T03:57:50;98735.97;;;-1.36;95.05
44131;BME280;29792;48.726;9.248;2023-02-11T04:00:15;98741.00;;;-1.33;94.43
44131;BME280;29792;48.726;9.248;2023-02-11T04:02:41;98745.16;;;-1.28;94.72
44131;BME280;29792;48.726;9.248;2023-02-11T04:05:08;98734.25;;;-1.24;94.49
44131;BME280;29792;48.726;9.248;2023-02-11T04:07:34;98727.56;;;-1.22;94.41
44131;BME280;29792;48.726;9.248;2023-02-11T04:09:59;98736.72;;;-1.18;94.74
44131;BME280;29792;48.726;9.248;2023-02-11T04:12:24;98736.69;;;-1.11;94.23
44131;BME280;29792;48.726;9.248;2023-02-11T04:14:50;98739.19;;;-1.07;94.91
44131;BME280;29792;48.726;9.248;2023-02-11T04:17:15;98752.56;;;-1.03;94.64
44131;BME280;29792;48.726;9.248;2023-02-11T04:19:40;98750.06;;;-1.03;95.37
44131;BME280;29792;48.726;9.248;2023-02-11T04:22:06;98756.78;;;-1.05;94.26
44131;BME280;29792;48.726;9.248;2023-02-11T04:24:31;98762.66;;;-1.08;94.79
44131;BME280;29792;48.726;9.248;2023-02-11T04:26:57;98764.34;;;-1.11;94.47
44131;BME280;29792;48.726;9.248;2023-02-11T04:29:22;98766.88;;;-1.14;94.54
44131;BME280;29792;48.726;9.248;2023-02-11T04:31:48;98771.09;;;-1.15;95.18
44131;BME280;29792;48.726;9.248;2023-02-11T04:34:13;98766.84;;;-1.13;95.15
44131;BME280;29792;48.726;9.248;2023-02-11T04:36:38;98757.63;;;-1.12;95.24
44131;BME280;29792;48.726;9.248;2023-02-11T04:39:04;98761.00;;;-1.12;95.51
44131;BME280;29792;48.726;9.248;2023-02-11T04:41:29;98762.66;;;-1.12;96.36
44131;BME280;29792;48.726;9.248;2023-02-11T04:43:55;98761.00;;;-1.10;96.08
44131;BME280;29792;48.726;9.248;2023-02-11T04:46:20;98757.63;;;-1.11;96.41
44131;BME280;29792;48.726;9.248;2023-02-11T04:48:45;98760.16;;;-1.09;97.08
44131;BME280;29792;48.726;9.248;2023-02-11T04:51:11;98756.81;;;-1.13;96.97
44131;BME280;29792;48.726;9.248;2023-02-11T04:53:36;98757.69;;;-1.14;97.26
44131;BME280;29792;48.726;9.248;2023-02-11T04:56:01;98756.84;;;-1.14;97.71
44131;BME280;29792;48.726;9.248;2023-02-11T04:58:27;98761.88;;;-1.14;97.48
44131;BME280;29792;48.726;9.248;2023-02-11T05:00:52;98754.31;;;-1.14;98.02
44131;BME280;29792;48.726;9.248;2023-02-11T05:03:17;98750.13;;;-1.14;97.88
44131;BME280;29792;48.726;9.248;2023-02-11T05:05:42;98751.81;;;-1.16;97.32
44131;BME280;29792;48.726;9.248;2023-02-11T05:08:09;98742.59;;;-1.19;98.07
44131;BME280;29792;48.726;9.248;2023-02-11T05:10:34;98741.78;;;-1.22;97.69
44131;BME280;29792;48.726;9.248;2023-02-11T05:13:00;98741.78;;;-1.22;97.52
44131;BME280;29792;48.726;9.248;2023-02-11T05:15:25;98747.66;;;-1.22;98.49
44131;BME280;29792;48.726;9.248;2023-02-11T05:17:50;98740.09;;;-1.19;98.16
44131;BME280;29792;48.726;9.248;2023-02-11T05:20:16;98725.00;;;-1.19;98.16
44131;BME280;29792;48.726;9.248;2023-02-11T05:22:41;98718.28;;;-1.18;98.91
44131;BME280;29792;48.726;9.248;2023-02-11T05:25:06;98710.75;;;-1.15;98.82
44131;BME280;29792;48.726;9.248;2023-02-11T05:27:32;98703.22;;;-1.13;99.09
44131;BME280;29792;48.726;9.248;2023-02-11T05:29:57;98704.00;;;-1.10;99.37
44131;BME280;29792;48.726;9.248;2023-02-11T05:32:22;98697.31;;;-1.11;98.59
44131;BME280;29792;48.726;9.248;2023-02-11T05:34:48;98685.56;;;-1.12;98.65
44131;BME280;29792;48.726;9.248;2023-02-11T05:37:13;98679.72;;;-1.12;98.67
44131;BME280;29792;48.726;9.248;2023-02-11T05:39:38;98689.75;;;-1.09;98.77
44131;BME280;29792;48.726;9.248;2023-02-11T05:42:04;98697.28;;;-1.06;99.34
44131;BME280;29792;48.726;9.248;2023-02-11T05:44:29;98690.53;;;-1.01;98.77
44131;BME280;29792;48.726;9.248;2023-02-11T05:46:54;98682.16;;;-0.99;98.51
44131;BME280;29792;48.726;9.248;2023-02-11T05:49:19;98684.63;;;-0.94;98.82
44131;BME280;29792;48.726;9.248;2023-02-11T05:51:45;98688.78;;;-0.92;98.47
44131;BME280;29792;48.726;9.248;2023-02-11T05:54:10;98692.09;;;-0.87;98.69
44131;BME280;29792;48.726;9.248;2023-02-11T05:56:36;98686.22;;;-0.83;98.83
44131;BME280;29792;48.726;9.248;2023-02-11T05:59:01;98686.19;;;-0.80;98.23
44131;BME280;29792;48.726;9.248;2023-02-11T06:01:26;98686.09;;;-0.72;98.54
44131;BME280;29792;48.726;9.248;2023-02-11T06:03:52;98678.53;;;-0.66;98.05
44131;BME280;29792;48.726;9.248;2023-02-11T06:06:17;98682.66;;;-0.60;97.45
44131;BME280;29792;48.726;9.248;2023-02-11T06:08:42;98685.97;;;-0.54;97.57
44131;BME280;29792;48.726;9.248;2023-02-11T06:11:08;98682.53;;;-0.48;97.66
44131;BME280;29792;48.726;9.248;2023-02-11T06:13:34;98682.53;;;-0.44;97.03
44131;BME280;29792;48.726;9.248;2023-02-11T06:16:01;98689.19;;;-0.40;97.04
44131;BME280;29792;48.726;9.248;2023-02-11T06:18:26;98703.41;;;-0.34;96.06
44131;BME280;29792;48.726;9.248;2023-02-11T06:20:52;98708.38;;;-0.29;96.25
44131;BME280;29792;48.726;9.248;2023-02-11T06:23:17;98700.81;;;-0.26;96.57
44131;BME280;29792;48.726;9.248;2023-02-11T06:25:42;98708.31;;;-0.22;96.12
44131;BME280;29792;48.726;9.248;2023-02-11T06:28:08;98705.78;;;-0.19;96.77
44131;BME280;29792;48.726;9.248;2023-02-11T06:30:35;98704.94;;;-0.18;96.63
44131;BME280;29792;48.726;9.248;2023-02-11T06:33:00;98709.91;;;-0.15;96.58
44131;BME280;29792;48.726;9.248;2023-02-11T06:35:26;98704.88;;;-0.13;96.89
44131;BME280;29792;48.726;9.248;2023-02-11T06:37:52;98698.16;;;-0.13;96.56
44131;BME280;29792;48.726;9.248;2023-02-11T06:40:18;98700.66;;;-0.13;96.87
44131;BME280;29792;48.726;9.248;2023-02-11T06:42:43;98703.19;;;-0.13;96.67
44131;BME280;29792;48.726;9.248;2023-02-11T06:45:09;98714.09;;;-0.14;96.68
44131;BME280;29792;48.726;9.248;2023-02-11T06:47:35;98704.88;;;-0.15;97.30
44131;BME280;29792;48.726;9.248;2023-02-11T06:50:01;98711.59;;;-0.14;96.96
44131;BME280;29792;48.726;9.248;2023-02-11T06:52:26;98709.09;;;-0.15;97.30
44131;BME280;29792;48.726;9.248;2023-02-11T06:54:51;98716.63;;;-0.12;97.58
44131;BME280;29792;48.726;9.248;2023-02-11T06:57:16;98717.44;;;-0.09;97.65
44131;BME280;29792;48.726;9.248;2023-02-11T06:59:42;98714.84;;;-0.04;97.06
44131;BME280;29792;48.726;9.248;2023-02-11T07:02:10;98717.31;;;0.00;97.30
44131;BME280;29792;48.726;9.248;2023-02-11T07:04:35;98716.47;;;0.03;97.01
44131;BME280;29792;48.726;9.248;2023-02-11T07:07:00;98716.44;;;0.05;97.61
44131;BME280;29792;48.726;9.248;2023-02-11T07:09:26;98717.28;;;0.07;97.42
44131;BME280;29792;48.726;9.248;2023-02-11T07:11:51;98724.78;;;0.10;97.61
44131;BME280;29792;48.726;9.248;2023-02-11T07:14:16;98729.81;;;0.11;97.49
44131;BME280;29792;48.726;9.248;2023-02-11T07:16:42;98727.25;;;0.14;97.77
44131;BME280;29792;48.726;9.248;2023-02-11T07:19:07;98718.84;;;0.15;98.04
44131;BME280;29792;48.726;9.248;2023-02-11T07:21:32;98712.94;;;0.18;97.61
44131;BME280;29792;48.726;9.248;2023-02-11T07:23:58;98716.25;;;0.23;98.45
44131;BME280;29792;48.726;9.248;2023-02-11T07:26:23;98731.28;;;0.30;97.90
44131;BME280;29792;48.726;9.248;2023-02-11T07:28:51;98716.94;;;0.35;97.61
44131;BME280;29792;48.726;9.248;2023-02-11T07:31:22;98710.13;;;0.42;98.09
44131;BME280;29792;48.726;9.248;2023-02-11T07:33:47;98710.00;;;0.53;97.97
44131;BME280;29792;48.726;9.248;2023-02-11T07:36:14;98704.88;;;0.57;98.28
44131;BME280;29792;48.726;9.248;2023-02-11T07:38:40;98710.72;;;0.62;98.25
44131;BME280;29792;48.726;9.248;2023-02-11T07:41:09;98722.38;;;0.69;98.80
44131;BME280;29792;48.726;9.248;2023-02-11T07:43:36;98720.47;;;0.88;99.55
44131;BME280;29792;48.726;9.248;2023-02-11T07:46:04;98724.31;;;1.13;99.88
44131;BME280;29792;48.726;9.248;2023-02-11T07:48:29;98729.75;;;1.41;99.25
44131;BME280;29792;48.726;9.248;2023-02-11T07:50:55;98722.13;;;1.94;100.00
44131;BME280;29792;48.726;9.248;2023-02-11T07:53:20;98720.59;;;2.29;98.37
44131;BME280;29792;48.726;9.248;2023-02-11T07:55:46;98724.63;;;2.38;95.74
44131;BME280;29792;48.726;9.248;2023-02-11T07:58:11;98710.22;;;2.43;93.36
44131;BME280;29792;48.726;9.248;2023-02-11T08:00:36;98708.59;;;2.41;92.21
44131;BME280;29792;48.726;9.248;2023-02-11T08:03:02;98709.56;;;2.35;90.84
44131;BME280;29792;48.726;9.248;2023-02-11T08:05:28;98706.34;;;2.27;89.92
44131;BME280;29792;48.726;9.248;2023-02-11T08:07:54;98703.03;;;2.23;89.82
44131;BME280;29792;48.726;9.248;2023-02-11T08:10:20;98706.47;;;2.19;89.79
44131;BME280;29792;48.726;9.248;2023-02-11T08:12:45;98715.81;;;2.16;89.93
44131;BME280;29792;48.726;9.248;2023-02-11T08:15:10;98707.56;;;2.06;90.65
44131;BME280;29792;48.726;9.248;2023-02-11T08:17:36;98703.44;;;2.02;91.30
44131;BME280;29792;48.726;9.248;2023-02-11T08:20:02;98702.53;;;2.05;92.17
44131;BME280;29792;48.726;9.248;2023-02-11T08:22:30;98703.00;;;2.25;93.28
44131;BME280;29792;48.726;9.248;2023-02-11T08:24:55;98701.53;;;2.93;95.35
44131;BME280;29792;48.726;9.248;2023-02-11T08:27:22;98705.56;;;3.39;94.19
44131;BME280;29792;48.726;9.248;2023-02-11T08:29:48;98705.84;;;3.62;91.20
44131;BME280;29792;48.726;9.248;2023-02-11T08:32:13;98706.69;;;3.61;89.67
44131;BME280;29792;48.726;9.248;2023-02-11T08:34:38;98715.13;;;3.62;88.40
44131;BME280;29792;48.726;9.248;2023-02-11T08:37:03;98721.88;;;3.63;87.90
44131;BME280;29792;48.726;9.248;2023-02-11T08:39:29;98713.44;;;3.62;87.14
44131;BME280;29792;48.726;9.248;2023-02-11T08:41:54;98715.94;;;3.64;86.20
44131;BME280;29792;48.726;9.248;2023-02-11T08:44:21;98711.72;;;3.63;86.40
44131;BME280;29792;48.726;9.248;2023-02-11T08:46:47;98717.69;;;3.60;85.82
44131;BME280;29792;48.726;9.248;2023-02-11T08:49:13;98718.66;;;3.56;86.27
44131;BME280;29792;48.726;9.248;2023-02-11T08:51:39;98716.84;;;3.61;86.68
44131;BME280;29792;48.726;9.248;2023-02-11T08:54:04;98718.94;;;3.78;87.06
44131;BME280;29792;48.726;9.248;2023-02-11T08:56:33;98721.28;;;3.86;86.94
44131;BME280;29792;48.726;9.248;2023-02-11T08:58:58;98717.44;;;4.03;86.50
44131;BME280;29792;48.726;9.248;2023-02-11T09:01:27;98712.97;;;4.13;86.84
44131;BME280;29792;48.726;9.248;2023-02-11T09:03:53;98709.69;;;4.08;86.47
44131;BME280;29792;48.726;9.248;2023-02-11T09:06:19;98708.75;;;4.12;86.77
44131;BME280;29792;48.726;9.248;2023-02-11T09:08:46;98705.88;;;4.24;86.24
44131;BME280;29792;48.726;9.248;2023-02-11T09:11:13;98710.63;;;4.36;85.27
44131;BME280;29792;48.726;9.248;2023-02-11T09:13:40;98712.69;;;4.53;86.32
44131;BME280;29792;48.726;9.248;2023-02-11T09:16:06;98717.28;;;4.70;84.30
44131;BME280;29792;48.726;9.248;2023-02-11T09:18:32;98724.00;;;4.71;82.14
44131;BME280;29792;48.726;9.248;2023-02-11T09:21:04;98732.34;;;4.76;81.19
44131;BME280;29792;48.726;9.248;2023-02-11T09:23:30;98721.13;;;4.83;81.22
44131;BME280;29792;48.726;9.248;2023-02-11T09:25:58;98711.50;;;4.94;81.34
44131;BME280;29792;48.726;9.248;2023-02-11T09:28:24;98706.03;;;5.06;80.31
44131;BME280;29792;48.726;9.248;2023-02-11T09:30:49;98707.28;;;5.19;79.62
44131;BME280;29792;48.726;9.248;2023-02-11T09:33:14;98707.88;;;5.27;78.94
44131;BME280;29792;48.726;9.248;2023-02-11T09:35:39;98699.88;;;5.40;78.21
44131;BME280;29792;48.726;9.248;2023-02-11T09:38:05;98697.63;;;5.57;78.96
44131;BME280;29792;48.726;9.248;2023-02-11T09:40:32;98694.41;;;5.76;77.58
44131;BME280;29792;48.726;9.248;2023-02-11T09:43:11;98691.25;;;5.96;76.87
44131;BME280;29792;48.726;9.248;2023-02-11T09:45:38;98692.03;;;5.98;75.11
44131;BME280;29792;48.726;9.248;2023-02-11T09:48:11;98696.22;;;5.99;74.61
44131;BME280;29792;48.726;9.248;2023-02-11T09:50:41;98697.00;;;6.01;73.92
44131;BME280;29792;48.726;9.248;2023-02-11T09:53:15;98702.63;;;6.09;73.55
44131;BME280;29792;48.726;9.248;2023-02-11T09:55:48;98705.69;;;6.19;73.91
44131;BME280;29792;48.726;9.248;2023-02-11T09:58:25;98705.38;;;6.28;73.92
44131;BME280;29792;48.726;9.248;2023-02-11T10:04:31;98708.75;;;6.52;72.85
44131;BME280;29792;48.726;9.248;2023-02-11T10:07:20;98709.94;;;6.65;71.68
44131;BME280;29792;48.726;9.248;2023-02-11T10:15:19;98716.28;;;7.44;70.93
44131;BME280;29792;48.726;9.248;2023-02-11T10:20:48;98706.78;;;8.08;69.25
44131;BME280;29792;48.726;9.248;2023-02-11T10:23:28;98711.97;;;8.46;68.74
44131;BME280;29792;48.726;9.248;2023-02-11T10:25:56;98703.94;;;9.09;69.06
44131;BME280;29792;48.726;9.248;2023-02-11T10:28:34;98708.94;;;9.99;66.34
44131;BME280;29792;48.726;9.248;2023-02-11T10:31:04;98702.31;;;10.93;62.50
44131;BME280;29792;48.726;9.248;2023-02-11T10:33:40;98703.94;;;11.85;58.30
44131;BME280;29792;48.726;9.248;2023-02-11T10:36:10;98708.28;;;12.70;56.01
44131;BME280;29792;48.726;9.248;2023-02-11T10:38:36;98707.84;;;13.58;53.90
44131;BME280;29792;48.726;9.248;2023-02-11T10:41:01;98705.22;;;14.36;51.42
44131;BME280;29792;48.726;9.248;2023-02-11T10:43:28;98699.25;;;15.21;48.92
44131;BME280;29792;48.726;9.248;2023-02-11T10:45:55;98697.28;;;15.83;46.72
44131;BME280;29792;48.726;9.248;2023-02-11T10:51:25;98695.69;;;16.38;42.44
44131;BME280;29792;48.726;9.248;2023-02-11T10:54:16;98692.19;;;16.28;42.45
44131;BME280;29792;48.726;9.248;2023-02-11T10:56:48;98682.28;;;16.11;43.02
44131;BME280;29792;48.726;9.248;2023-02-11T10:59:28;98681.88;;;15.82;43.14
44131;BME280;29792;48.726;9.248;2023-02-11T11:01:57;98671.84;;;15.55;43.68
44131;BME280;29792;48.726;9.248;2023-02-11T11:04:32;98678.53;;;15.34;44.59
44131;BME280;29792;48.726;9.248;2023-02-11T11:07:18;98667.38;;;15.33;44.64
44131;BME280;29792;48.726;9.248;2023-02-11T11:09:50;98662.16;;;15.46;44.56
44131;BME280;29792;48.726;9.248;2023-02-11T11:12:26;98653.81;;;15.77;44.59
44131;BME280;29792;48.726;9.248;2023-02-11T11:14:57;98656.66;;;16.08;43.75
44131;BME280;29792;48.726;9.248;2023-02-11T11:17:23;98660.44;;;16.37;42.97
44131;BME280;29792;48.726;9.248;2023-02-11T11:19:49;98660.41;;;16.70;42.40
44131;BME280;29792;48.726;9.248;2023-02-11T11:22:21;98661.84;;;17.38;42.26
44131;BME280;29792;48.726;9.248;2023-02-11T11:24:47;98660.97;;;18.11;40.91
44131;BME280;29792;48.726;9.248;2023-02-11T11:27:22;98659.34;;;18.81;39.72
44131;BME280;29792;48.726;9.248;2023-02-11T11:29:51;98654.03;;;19.30;38.11
44131;BME280;29792;48.726;9.248;2023-02-11T11:32:29;98653.75;;;19.62;37.93
44131;BME280;29792;48.726;9.248;2023-02-11T11:35:01;98650.63;;;19.59;35.94
44131;BME280;29792;48.726;9.248;2023-02-11T11:37:29;98650.19;;;19.15;36.46
44131;BME280;29792;48.726;9.248;2023-02-11T11:39:58;98655.63;;;18.74;37.17
44131;BME280;29792;48.726;9.248;2023-02-11T11:42:33;98658.41;;;18.51;38.00
44131;BME280;29792;48.726;9.248;2023-02-11T11:45:02;98652.09;;;18.44;37.75
44131;BME280;29792;48.726;9.248;2023-02-11T11:50:33;98651.38;;;17.40;37.21
44131;BME280;29792;48.726;9.248;2023-02-11T11:54:01;98649.25;;;16.14;38.96
44131;BME280;29792;48.726;9.248;2023-02-11T11:56:36;98640.53;;;14.88;40.95
44131;BME280;29792;48.726;9.248;2023-02-11T11:59:05;98646.78;;;14.11;43.22
44131;BME280;29792;48.726;9.248;2023-02-11T12:01:46;98654.69;;;13.57;44.38
44131;BME280;29792;48.726;9.248;2023-02-11T12:07:10;98642.31;;;12.83;45.69
44131;BME280;29792;48.726;9.248;2023-02-11T12:15:48;98647.31;;;12.58;47.65
44131;BME280;29792;48.726;9.248;2023-02-11T12:29:32;98638.56;;;12.19;48.09
44131;BME280;29792;48.726;9.248;2023-02-11T12:45:37;98645.91;;;11.97;49.28
44131;BME280;29792;48.726;9.248;2023-02-11T12:50:47;98646.44;;;12.16;48.80
44131;BME280;29792;48.726;9.248;2023-02-11T12:56:05;98647.28;;;12.17;48.48
44131;BME280;29792;48.726;9.248;2023-02-11T12:58:37;98641.88;;;12.07;48.15
44131;BME280;29792;48.726;9.248;2023-02-11T13:01:09;98641.22;;;12.04;48.66
44131;BME280;29792;48.726;9.248;2023-02-11T13:03:40;98632.88;;;12.00;49.16
44131;BME280;29792;48.726;9.248;2023-02-11T13:06:13;98626.38;;;11.95;49.50
44131;BME280;29792;48.726;9.248;2023-02-11T13:08:47;98622.53;;;11.88;49.33
44131;BME280;29792;48.726;9.248;2023-02-11T13:11:20;98622.81;;;11.83;49.45
44131;BME280;29792;48.726;9.248;2023-02-11T13:14:13;98613.38;;;11.68;49.92
44131;BME280;29792;48.726;9.248;2023-02-11T13:16:42;98620.44;;;11.64;50.24
44131;BME280;29792;48.726;9.248;2023-02-11T13:22:01;98617.56;;;11.84;51.74
44131;BME280;29792;48.726;9.248;2023-02-11T13:25:02;98612.88;;;12.19;51.43
44131;BME280;29792;48.726;9.248;2023-02-11T13:27:48;98607.72;;;12.34;50.80
44131;BME280;29792;48.726;9.248;2023-02-11T13:30:48;98609.53;;;12.46;51.01
44131;BME280;29792;48.726;9.248;2023-02-11T13:33:35;98607.91;;;12.72;50.43
44131;BME280;29792;48.726;9.248;2023-02-11T13:38:28;98605.09;;;13.16;50.15
44131;BME280;29792;48.726;9.248;2023-02-11T13:46:59;98605.22;;;12.73;49.27
44131;BME280;29792;48.726;9.248;2023-02-11T13:49:33;98605.56;;;12.54;50.04
44131;BME280;29792;48.726;9.248;2023-02-11T13:52:02;98605.34;;;12.16;49.86
44131;BME280;29792;48.726;9.248;2023-02-11T13:54:32;98612.16;;;11.89;50.91
44131;BME280;29792;48.726;9.248;2023-02-11T13:57:21;98613.22;;;11.71;51.72
44131;BME280;29792;48.726;9.248;2023-02-11T13:59:52;98608.69;;;11.60;51.94
44131;BME280;29792;48.726;9.248;2023-02-11T14:02:33;98605.44;;;11.72;53.88
44131;BME280;29792;48.726;9.248;2023-02-11T14:13:35;98587.44;;;14.49;49.28
44131;BME280;29792;48.726;9.248;2023-02-11T14:16:11;98597.06;;;14.95;48.24
44131;BME280;29792;48.726;9.248;2023-02-11T14:21:18;98591.56;;;14.99;46.83
44131;BME280;29792;48.726;9.248;2023-02-11T14:23:44;98585.59;;;14.51;47.52
44131;BME280;29792;48.726;9.248;2023-02-11T14:29:06;98608.97;;;13.73;49.76
44131;BME280;29792;48.726;9.248;2023-02-11T14:31:58;98601.13;;;13.50;49.86
44131;BME280;29792;48.726;9.248;2023-02-11T14:37:26;98593.38;;;12.97;50.75
44131;BME280;29792;48.726;9.248;2023-02-11T14:40:22;98590.69;;;12.86;51.75
44131;BME280;29792;48.726;9.248;2023-02-11T14:42:50;98593.66;;;12.80;52.61
44131;BME280;29792;48.726;9.248;2023-02-11T14:45:21;98600.09;;;12.73;51.95
44131;BME280;29792;48.726;9.248;2023-02-11T14:48:15;98597.84;;;12.81;52.86
44131;BME280;29792;48.726;9.248;2023-02-11T14:50:50;98604.00;;;13.06;52.34
44131;BME280;29792;48.726;9.248;2023-02-11T14:53:22;98606.16;;;13.38;52.52
44131;BME280;29792;48.726;9.248;2023-02-11T14:55:50;98612.88;;;13.66;51.76
44131;BME280;29792;48.726;9.248;2023-02-11T14:58:21;98607.97;;;13.76;51.13
44131;BME280;29792;48.726;9.248;2023-02-11T15:03:30;98606.31;;;14.37;50.54